Time;durP1;ratioP1;P1;durP2;ratioP2;P2;SDS_P1;SDS_P2;PMS_P1;PMS_P2;Temp;Humidity;BMP_temperature;BMP_pressure;BME280_temperature;BME280_humidity;BME280_pressure;Samples;Min_cycle;Max_cycle;Signal;HPM_P1;HPM_P2
2023/09/05 00:02:07;;;;;;;6.85;4.20;;;16.90;99.90;;;;;;5009511;28;20080;-77
2023/09/05 00:04:33;;;;;;;5.13;3.63;;;17.00;99.90;;;;;;5005073;28;20053;-76
2023/09/05 00:06:58;;;;;;;5.85;4.10;;;17.00;99.90;;;;;;5009998;28;20065;-75
2023/09/05 00:09:24;;;;;;;6.03;3.97;;;17.00;99.90;;;;;;5010483;28;20105;-75
2023/09/05 00:11:50;;;;;;;5.95;4.15;;;17.00;99.90;;;;;;5009967;28;20477;-76
2023/09/05 00:14:18;;;;;;;5.15;3.80;;;17.00;99.90;;;;;;5009830;28;20112;-75
2023/09/05 00:16:43;;;;;;;5.22;4.72;;;16.90;99.90;;;;;;5007432;28;20449;-75
2023/09/05 00:19:10;;;;;;;6.18;5.30;;;16.90;99.90;;;;;;5010522;28;20037;-76
2023/09/05 00:21:36;;;;;;;7.22;4.35;;;16.90;99.90;;;;;;5010231;28;20025;-75
2023/09/05 00:24:38;;;;;;;6.90;4.35;;;16.90;99.90;;;;;;5009753;28;20025;-75
2023/09/05 00:27:09;;;;;;;6.32;4.53;;;16.90;99.90;;;;;;5009595;28;20030;-77
2023/09/05 00:29:35;;;;;;;6.65;4.10;;;16.80;99.90;;;;;;5007620;28;20029;-75
2023/09/05 00:32:01;;;;;;;7.05;5.32;;;16.80;99.90;;;;;;5003856;28;20033;-75
2023/09/05 00:34:37;;;;;;;5.25;4.75;;;16.80;99.90;;;;;;5002776;28;20084;-75
2023/09/05 00:37:06;;;;;;;5.90;4.90;;;16.80;99.90;;;;;;5008772;28;20029;-75
2023/09/05 00:39:35;;;;;;;6.72;5.00;;;16.70;99.90;;;;;;5009723;28;20021;-75
2023/09/05 00:42:05;;;;;;;7.57;5.22;;;16.70;99.90;;;;;;5010839;28;20456;-76
2023/09/05 00:44:31;;;;;;;5.72;5.10;;;16.70;99.90;;;;;;5009205;28;20021;-75
2023/09/05 00:46:59;;;;;;;5.88;5.28;;;16.60;99.90;;;;;;4992225;28;20038;-75
2023/09/05 00:49:27;;;;;;;8.82;5.68;;;16.70;99.90;;;;;;5009087;28;20026;-75
2023/09/05 00:51:55;;;;;;;8.57;5.30;;;16.60;99.90;;;;;;5005049;28;20026;-75
2023/09/05 00:54:21;;;;;;;10.10;5.60;;;16.60;99.90;;;;;;4993447;28;20061;-76
2023/09/05 00:56:48;;;;;;;7.70;6.13;;;16.60;99.90;;;;;;5003445;28;20058;-76
2023/09/05 00:59:15;;;;;;;7.25;5.50;;;16.60;99.90;;;;;;4978468;28;20026;-76
2023/09/05 01:01:41;;;;;;;6.32;5.13;;;16.60;99.90;;;;;;5006747;28;20398;-75
2023/09/05 01:04:07;;;;;;;9.57;5.90;;;16.60;99.90;;;;;;5009113;28;20108;-75
2023/09/05 01:07:03;;;;;;;6.53;5.60;;;16.60;99.90;;;;;;5009722;28;20026;-75
2023/09/05 01:09:56;;;;;;;9.52;5.43;;;16.60;99.90;;;;;;5007320;28;20033;-75
2023/09/05 01:12:22;;;;;;;7.40;5.38;;;16.50;99.90;;;;;;5006518;28;20080;-75
2023/09/05 01:14:48;;;;;;;8.70;6.15;;;16.50;99.90;;;;;;5008379;28;20509;-76
2023/09/05 01:17:14;;;;;;;9.27;5.90;;;16.50;99.90;;;;;;5014082;28;20061;-75
2023/09/05 01:19:40;;;;;;;10.10;6.20;;;16.50;99.90;;;;;;5012129;28;20018;-75
2023/09/05 01:22:33;;;;;;;8.40;6.65;;;16.40;99.90;;;;;;5014529;28;20053;-76
2023/09/05 01:24:58;;;;;;;9.77;7.20;;;16.40;99.90;;;;;;5008514;28;20124;-75
2023/09/05 01:27:26;;;;;;;11.77;6.40;;;16.40;99.90;;;;;;5012697;28;20209;-76
2023/09/05 01:29:53;;;;;;;8.63;7.07;;;16.40;99.90;;;;;;5006560;28;20026;-76
2023/09/05 01:32:20;;;;;;;8.63;5.85;;;16.40;99.90;;;;;;5009492;28;20105;-76
2023/09/05 01:34:45;;;;;;;6.63;5.63;;;16.40;99.90;;;;;;5013182;28;20026;-77
2023/09/05 01:37:14;;;;;;;10.95;6.00;;;16.30;99.90;;;;;;5003473;28;20030;-75
2023/09/05 01:39:40;;;;;;;7.18;6.32;;;16.30;99.90;;;;;;5010075;28;20045;-76
2023/09/05 01:42:05;;;;;;;8.98;5.90;;;16.30;99.90;;;;;;5008967;28;20382;-75
2023/09/05 01:44:34;;;;;;;9.75;6.55;;;16.30;99.90;;;;;;5010134;28;20038;-75
2023/09/05 01:47:00;;;;;;;7.00;5.32;;;16.20;99.90;;;;;;5009447;28;20030;-75
2023/09/05 01:49:25;;;;;;;9.65;6.28;;;16.20;99.90;;;;;;5005500;28;20029;-76
2023/09/05 01:51:51;;;;;;;6.88;5.97;;;16.30;99.90;;;;;;5010097;28;20034;-76
2023/09/05 01:54:16;;;;;;;7.60;6.03;;;16.20;99.90;;;;;;5012652;28;20029;-75
2023/09/05 01:56:42;;;;;;;6.75;5.53;;;16.20;99.90;;;;;;5005526;28;20411;-75
2023/09/05 01:59:08;;;;;;;7.60;6.47;;;16.20;99.90;;;;;;5011549;28;20112;-76
2023/09/05 02:01:33;;;;;;;8.20;6.88;;;16.20;99.90;;;;;;5008775;28;20026;-75
2023/09/05 02:03:59;;;;;;;8.07;6.10;;;16.10;99.90;;;;;;5010506;28;20037;-76
2023/09/05 02:06:25;;;;;;;7.65;5.57;;;16.10;99.90;;;;;;5010451;28;20397;-75
2023/09/05 02:08:50;;;;;;;7.68;6.32;;;16.00;99.90;;;;;;5012651;28;20037;-76
2023/09/05 02:11:16;;;;;;;8.13;6.38;;;16.00;99.90;;;;;;5011299;28;20018;-75
2023/09/05 02:13:42;;;;;;;8.75;6.05;;;16.00;99.90;;;;;;5009348;28;20172;-76
2023/09/05 02:16:07;;;;;;;9.90;5.88;;;16.00;99.90;;;;;;5010386;28;20026;-75
2023/09/05 02:18:33;;;;;;;9.88;6.70;;;16.00;99.90;;;;;;4990981;28;20864;-76
2023/09/05 02:21:00;;;;;;;10.27;6.03;;;16.10;99.90;;;;;;5012592;28;20053;-76
2023/09/05 02:23:26;;;;;;;7.63;5.75;;;16.00;99.90;;;;;;5008738;28;20054;-75
2023/09/05 02:25:59;;;;;;;9.10;5.55;;;16.00;99.90;;;;;;5011769;28;20026;-76
2023/09/05 02:28:26;;;;;;;7.22;6.13;;;16.10;99.90;;;;;;5007526;28;20858;-76
2023/09/05 02:30:52;;;;;;;11.07;6.40;;;16.10;99.90;;;;;;5008901;28;20044;-75
2023/09/05 02:33:19;;;;;;;9.32;6.13;;;16.00;99.90;;;;;;4990734;28;20109;-75
2023/09/05 02:35:44;;;;;;;8.75;5.32;;;16.10;99.90;;;;;;5010986;28;20105;-75
2023/09/05 02:38:10;;;;;;;7.65;5.80;;;16.10;99.90;;;;;;5001488;28;20026;-76
2023/09/05 02:40:35;;;;;;;6.93;5.70;;;16.00;99.90;;;;;;5006582;28;20035;-76
2023/09/05 02:43:01;;;;;;;11.50;6.22;;;16.00;99.90;;;;;;5004633;28;20079;-75
2023/09/05 02:45:27;;;;;;;9.95;6.63;;;16.00;99.90;;;;;;5011933;28;20037;-76
2023/09/05 02:47:52;;;;;;;7.05;5.47;;;16.00;99.90;;;;;;5011599;28;20048;-76
2023/09/05 02:50:18;;;;;;;6.95;5.28;;;16.10;99.90;;;;;;5016312;28;20033;-75
2023/09/05 02:52:43;;;;;;;7.70;5.43;;;16.00;99.90;;;;;;5009128;28;20036;-75
2023/09/05 02:55:09;;;;;;;7.47;5.45;;;16.00;99.90;;;;;;4998114;28;20034;-76
2023/09/05 02:57:34;;;;;;;7.57;5.47;;;16.00;99.90;;;;;;5011138;28;20041;-75
2023/09/05 03:00:00;;;;;;;7.85;5.95;;;15.90;99.90;;;;;;5002188;28;20113;-75
2023/09/05 03:02:26;;;;;;;10.68;5.90;;;15.90;99.90;;;;;;5006132;28;20045;-76
2023/09/05 03:04:53;;;;;;;6.95;5.32;;;15.90;99.90;;;;;;5010367;28;20029;-75
2023/09/05 03:07:22;;;;;;;7.97;5.07;;;15.90;99.90;;;;;;5009353;28;20421;-76
2023/09/05 03:09:52;;;;;;;7.18;5.65;;;15.90;99.90;;;;;;5012689;28;20363;-75
2023/09/05 03:12:17;;;;;;;9.48;6.30;;;15.80;99.90;;;;;;5005725;28;20512;-75
2023/09/05 03:14:44;;;;;;;7.63;6.10;;;15.80;99.90;;;;;;5004179;28;20034;-76
2023/09/05 03:17:11;;;;;;;7.85;5.97;;;15.80;99.90;;;;;;5007407;28;20026;-75
2023/09/05 03:19:38;;;;;;;7.90;6.35;;;15.70;99.90;;;;;;5010710;28;20088;-76
2023/09/05 03:22:04;;;;;;;11.50;8.10;;;15.70;99.90;;;;;;5009736;28;20586;-75
2023/09/05 03:24:30;;;;;;;9.40;6.68;;;15.70;99.90;;;;;;5006554;28;20401;-76
2023/09/05 03:26:55;;;;;;;9.32;7.07;;;15.60;99.90;;;;;;5007438;28;20033;-76
2023/09/05 03:29:21;;;;;;;7.60;6.45;;;15.60;99.90;;;;;;5007870;28;20054;-75
2023/09/05 03:31:46;;;;;;;8.82;6.88;;;15.60;99.90;;;;;;5005276;28;20037;-75
2023/09/05 03:34:12;;;;;;;10.07;7.43;;;15.60;99.90;;;;;;5008084;28;20030;-75
2023/09/05 03:36:37;;;;;;;8.45;6.20;;;15.50;99.90;;;;;;5007041;28;20627;-75
2023/09/05 03:39:03;;;;;;;9.75;6.60;;;15.60;99.90;;;;;;5009089;28;20033;-75
2023/09/05 03:41:29;;;;;;;8.93;6.80;;;15.50;99.90;;;;;;5008585;28;20034;-76
2023/09/05 03:43:55;;;;;;;10.05;7.10;;;15.50;99.90;;;;;;4992082;28;20022;-75
2023/09/05 03:46:20;;;;;;;10.27;7.90;;;15.50;99.90;;;;;;5009250;28;20036;-75
2023/09/05 03:48:48;;;;;;;9.10;6.95;;;15.50;99.90;;;;;;5010470;28;20034;-75
2023/09/05 03:51:13;;;;;;;9.95;7.20;;;15.40;99.90;;;;;;4990848;28;20014;-75
2023/09/05 03:53:39;;;;;;;8.40;7.15;;;15.40;99.90;;;;;;4988637;28;20095;-75
2023/09/05 03:56:04;;;;;;;9.93;7.60;;;15.40;99.90;;;;;;5010089;28;20021;-75
2023/09/05 03:58:31;;;;;;;11.07;7.35;;;15.40;99.90;;;;;;5009042;28;20029;-75
2023/09/05 04:00:57;;;;;;;12.10;8.30;;;15.40;99.90;;;;;;5002624;28;20084;-75
2023/09/05 04:03:22;;;;;;;10.15;7.60;;;15.40;99.90;;;;;;5006525;28;20022;-75
2023/09/05 04:05:48;;;;;;;12.30;8.30;;;15.40;99.90;;;;;;5009663;28;20104;-76
2023/09/05 04:08:13;;;;;;;9.80;8.40;;;15.40;99.90;;;;;;5005634;28;20072;-76
2023/09/05 04:10:39;;;;;;;9.90;7.32;;;15.40;99.90;;;;;;5005150;28;20057;-75
2023/09/05 04:13:04;;;;;;;9.43;6.90;;;15.30;99.90;;;;;;5002867;28;20433;-75
2023/09/05 04:15:31;;;;;;;9.90;8.43;;;15.40;99.90;;;;;;4997128;28;20517;-75
2023/09/05 04:17:56;;;;;;;11.20;8.32;;;15.40;99.90;;;;;;5005220;28;20165;-75
2023/09/05 04:20:22;;;;;;;11.88;8.63;;;15.40;99.90;;;;;;5008318;28;20104;-75
2023/09/05 04:22:48;;;;;;;8.95;7.43;;;15.40;99.90;;;;;;5008309;28;20440;-75
2023/09/05 04:25:14;;;;;;;8.77;7.32;;;15.50;99.90;;;;;;5004866;28;20575;-75
2023/09/05 04:27:40;;;;;;;11.07;7.45;;;15.40;99.90;;;;;;5003041;28;20418;-75
2023/09/05 04:30:06;;;;;;;10.52;7.72;;;15.50;99.90;;;;;;4989320;28;20029;-76
2023/09/05 04:32:32;;;;;;;9.40;7.45;;;15.40;99.90;;;;;;4983206;28;20036;-75
2023/09/05 04:35:00;;;;;;;13.48;7.63;;;15.50;99.90;;;;;;4981965;28;20030;-75
2023/09/05 04:37:26;;;;;;;11.25;7.72;;;15.40;99.90;;;;;;4990225;28;20069;-75
2023/09/05 04:39:52;;;;;;;8.27;6.60;;;15.40;99.90;;;;;;4985380;28;20027;-75
2023/09/05 04:42:17;;;;;;;10.77;7.43;;;15.40;99.90;;;;;;4989453;28;20030;-76
2023/09/05 04:44:43;;;;;;;8.00;6.30;;;15.40;99.90;;;;;;4989532;28;20030;-76
2023/09/05 04:47:19;;;;;;;9.07;6.85;;;15.30;99.90;;;;;;4981436;28;20578;-76
2023/09/05 04:49:44;;;;;;;10.18;7.55;;;15.30;99.90;;;;;;4979037;28;20109;-76
2023/09/05 04:52:12;;;;;;;8.13;6.45;;;15.20;99.90;;;;;;4985986;28;20121;-75
2023/09/05 04:54:37;;;;;;;9.73;7.30;;;15.20;99.90;;;;;;4985334;28;20023;-75
2023/09/05 04:57:03;;;;;;;9.25;7.38;;;15.20;99.90;;;;;;4986152;28;20035;-75
2023/09/05 04:59:28;;;;;;;12.70;7.53;;;15.10;99.90;;;;;;4984829;28;20023;-75
2023/09/05 05:01:54;;;;;;;8.98;6.80;;;15.00;99.90;;;;;;4983028;28;20026;-75
2023/09/05 05:04:22;;;;;;;7.20;5.97;;;15.00;99.90;;;;;;4983096;28;20085;-74
2023/09/05 05:06:47;;;;;;;8.48;5.95;;;15.00;99.90;;;;;;4983207;28;20027;-75
2023/09/05 05:09:13;;;;;;;7.60;5.93;;;14.90;99.90;;;;;;4978622;28;20399;-75
2023/09/05 05:11:39;;;;;;;8.43;6.32;;;14.90;99.90;;;;;;4985165;28;20038;-74
2023/09/05 05:14:05;;;;;;;8.73;5.85;;;14.90;99.90;;;;;;4983205;28;20026;-74
2023/09/05 05:16:30;;;;;;;8.07;6.22;;;14.90;99.90;;;;;;4973155;28;20089;-74
2023/09/05 05:18:56;;;;;;;8.85;5.85;;;14.90;99.90;;;;;;4991342;28;20029;-73
2023/09/05 05:21:22;;;;;;;7.72;5.70;;;14.90;99.90;;;;;;4990859;28;20018;-73
2023/09/05 05:23:47;;;;;;;9.38;6.38;;;14.90;99.90;;;;;;4976589;28;20034;-73
2023/09/05 05:26:13;;;;;;;6.65;5.47;;;14.90;99.90;;;;;;5004235;28;20133;-74
2023/09/05 05:28:39;;;;;;;10.73;6.15;;;14.90;99.90;;;;;;5000157;28;20507;-74
2023/09/05 05:31:14;;;;;;;6.57;5.45;;;14.90;99.90;;;;;;4983425;28;20025;-74
2023/09/05 05:33:39;;;;;;;6.57;4.90;;;14.90;99.90;;;;;;4982348;28;20525;-74
2023/09/05 05:36:05;;;;;;;6.40;4.60;;;14.90;99.90;;;;;;4999687;28;20038;-74
2023/09/05 05:38:31;;;;;;;5.47;4.38;;;15.00;99.90;;;;;;4982520;28;20026;-74
2023/09/05 05:40:57;;;;;;;7.55;3.75;;;15.00;99.90;;;;;;4988828;28;20026;-74
2023/09/05 05:43:26;;;;;;;4.68;3.75;;;15.10;99.90;;;;;;4980870;28;20483;-74
2023/09/05 05:45:52;;;;;;;7.80;3.67;;;15.10;99.90;;;;;;4988782;28;20025;-74
2023/09/05 05:48:17;;;;;;;5.50;3.80;;;15.20;99.90;;;;;;4980517;28;20042;-74
2023/09/05 05:50:43;;;;;;;5.82;3.92;;;15.30;99.90;;;;;;4983249;28;20034;-74
2023/09/05 05:53:09;;;;;;;11.43;5.10;;;15.40;99.90;;;;;;4980537;28;20027;-74
2023/09/05 05:55:34;;;;;;;6.55;4.72;;;15.50;99.90;;;;;;4989535;28;20030;-74
2023/09/05 05:58:00;;;;;;;7.97;4.88;;;15.50;99.90;;;;;;4993435;28;20042;-74
2023/09/05 06:00:27;;;;;;;8.05;4.53;;;15.60;99.90;;;;;;4990459;28;20037;-74
2023/09/05 06:02:55;;;;;;;5.75;4.78;;;15.70;99.90;;;;;;4991896;28;20026;-73
2023/09/05 06:05:21;;;;;;;5.78;4.65;;;15.70;99.90;;;;;;4983454;28;20038;-72
2023/09/05 06:07:47;;;;;;;9.43;5.32;;;15.70;99.90;;;;;;4987540;28;20117;-73
2023/09/05 06:10:13;;;;;;;8.00;4.32;;;15.80;99.90;;;;;;4988288;28;20998;-73
2023/09/05 06:12:38;;;;;;;7.40;3.75;;;15.80;99.90;;;;;;4991132;28;20034;-74
2023/09/05 06:15:04;;;;;;;7.65;4.18;;;15.80;99.90;;;;;;4990913;28;20105;-73
2023/09/05 06:17:29;;;;;;;6.80;3.25;;;15.90;99.90;;;;;;4989306;28;20445;-74
2023/09/05 06:19:55;;;;;;;7.15;4.38;;;16.00;99.90;;;;;;4988583;28;20019;-73
2023/09/05 06:22:21;;;;;;;9.65;3.95;;;16.10;99.90;;;;;;4989812;28;20038;-73
2023/09/05 06:24:46;;;;;;;5.07;2.72;;;16.10;99.90;;;;;;4987368;28;20031;-73
2023/09/05 06:27:11;;;;;;;3.92;2.10;;;16.20;99.90;;;;;;4983443;28;20099;-73
2023/09/05 06:29:37;;;;;;;8.07;2.70;;;16.30;99.90;;;;;;5006851;28;20040;-73
2023/09/05 06:32:03;;;;;;;3.38;2.00;;;16.50;99.90;;;;;;5009995;28;20021;-73
2023/09/05 06:34:29;;;;;;;5.47;2.17;;;16.70;99.90;;;;;;5008066;28;20057;-73
2023/09/05 06:36:54;;;;;;;3.22;1.55;;;16.80;99.90;;;;;;4993462;28;20057;-73
2023/09/05 06:39:20;;;;;;;5.75;1.58;;;17.00;99.90;;;;;;5012922;28;20488;-73
2023/09/05 06:41:48;;;;;;;5.20;1.48;;;17.10;99.90;;;;;;4994216;28;20034;-74
2023/09/05 06:44:15;;;;;;;5.55;1.30;;;17.30;99.90;;;;;;5000470;28;20105;-72
2023/09/05 06:46:40;;;;;;;4.07;1.55;;;17.50;99.90;;;;;;5009525;28;20030;-73
2023/09/05 06:49:06;;;;;;;4.57;1.50;;;17.70;99.90;;;;;;4992924;28;20029;-73
2023/09/05 06:51:31;;;;;;;6.25;1.75;;;17.90;99.90;;;;;;4981140;28;20022;-74
2023/09/05 06:53:58;;;;;;;2.50;0.95;;;18.00;99.90;;;;;;5013053;28;20149;-73
2023/09/05 06:56:24;;;;;;;8.40;1.40;;;18.20;99.90;;;;;;5006018;28;20471;-73
2023/09/05 06:58:50;;;;;;;3.83;1.73;;;18.40;99.90;;;;;;5005432;28;20037;-73
2023/09/05 07:01:15;;;;;;;2.60;0.95;;;18.60;99.90;;;;;;5005612;28;20021;-75
2023/09/05 07:03:41;;;;;;;2.50;0.95;;;18.80;99.90;;;;;;5013515;28;20026;-74
2023/09/05 07:06:07;;;;;;;4.82;1.20;;;18.90;99.90;;;;;;5009933;28;20030;-74
2023/09/05 07:08:32;;;;;;;4.75;1.25;;;19.20;99.90;;;;;;5012664;28;20037;-73
2023/09/05 07:10:58;;;;;;;2.30;0.73;;;19.40;99.90;;;;;;5012981;28;20425;-74
2023/09/05 07:13:25;;;;;;;2.17;0.90;;;19.50;99.90;;;;;;5011524;28;20030;-73
2023/09/05 07:15:51;;;;;;;2.15;0.90;;;19.70;99.90;;;;;;5012110;28;20393;-74
2023/09/05 07:18:17;;;;;;;2.10;0.85;;;19.90;99.90;;;;;;5009188;28;20677;-74
2023/09/05 07:20:42;;;;;;;3.80;0.90;;;20.10;99.90;;;;;;5005593;28;20081;-74
2023/09/05 07:23:08;;;;;;;1.92;0.80;;;20.20;99.90;;;;;;5010618;28;20026;-73
2023/09/05 07:25:38;;;;;;;1.80;0.80;;;20.30;99.90;;;;;;5011083;28;20466;-73
2023/09/05 07:28:04;;;;;;;3.75;1.13;;;20.50;99.90;;;;;;4980954;28;20046;-73
2023/09/05 07:30:32;;;;;;;2.35;0.85;;;20.60;99.90;;;;;;5010827;28;20382;-73
2023/09/05 07:32:57;;;;;;;3.25;0.70;;;20.70;99.90;;;;;;5011270;28;20025;-73
2023/09/05 07:35:23;;;;;;;2.67;0.90;;;20.70;99.90;;;;;;5010951;28;20030;-73
2023/09/05 07:37:48;;;;;;;2.63;0.73;;;20.80;99.90;;;;;;5011836;28;20028;-73
2023/09/05 07:40:14;;;;;;;3.50;0.73;;;20.90;99.90;;;;;;5008092;28;20033;-73
2023/09/05 07:42:41;;;;;;;3.17;0.77;;;21.00;99.90;;;;;;5007212;28;20032;-73
2023/09/05 07:45:08;;;;;;;3.28;0.98;;;21.10;99.90;;;;;;5018329;28;20026;-73
2023/09/05 07:47:34;;;;;;;2.92;0.93;;;21.10;99.90;;;;;;5009177;28;20033;-73
2023/09/05 07:50:00;;;;;;;3.72;1.02;;;21.20;99.90;;;;;;5007267;28;20041;-74
2023/09/05 07:52:25;;;;;;;2.28;0.90;;;21.30;99.90;;;;;;4988802;28;20145;-73
2023/09/05 07:54:52;;;;;;;2.15;0.80;;;21.30;99.90;;;;;;5010174;28;20030;-73
2023/09/05 07:57:18;;;;;;;4.35;1.00;;;21.40;99.90;;;;;;5006294;28;20018;-74
2023/09/05 07:59:44;;;;;;;2.85;0.90;;;21.50;99.90;;;;;;5012039;28;20043;-74
2023/09/05 08:02:10;;;;;;;2.47;0.80;;;21.50;99.90;;;;;;4977931;28;20025;-74
2023/09/05 08:04:38;;;;;;;2.88;0.90;;;21.60;99.90;;;;;;5010596;28;20026;-74
2023/09/05 08:07:05;;;;;;;2.85;1.02;;;21.60;99.90;;;;;;5010075;28;20038;-74
2023/09/05 08:09:30;;;;;;;2.05;0.80;;;21.80;99.90;;;;;;5008448;28;20485;-73
2023/09/05 08:11:56;;;;;;;2.97;0.98;;;21.80;99.90;;;;;;5004852;28;20101;-74
2023/09/05 08:14:22;;;;;;;3.05;1.05;;;21.90;99.90;;;;;;5011601;28;20037;-73
2023/09/05 08:16:48;;;;;;;6.30;0.85;;;22.00;99.90;;;;;;5011584;28;20034;-74
2023/09/05 08:19:13;;;;;;;2.50;0.75;;;22.10;99.90;;;;;;5011463;28;20036;-73
2023/09/05 08:21:39;;;;;;;2.80;1.10;;;22.20;99.90;;;;;;5012019;28;20042;-73
2023/09/05 08:24:05;;;;;;;3.17;1.13;;;22.30;99.90;;;;;;5011784;28;20033;-74
2023/09/05 08:26:33;;;;;;;3.60;0.98;;;22.40;99.90;;;;;;4984998;28;20061;-73
2023/09/05 08:28:58;;;;;;;5.93;0.93;;;22.40;99.90;;;;;;5009325;28;20073;-73
2023/09/05 08:31:24;;;;;;;2.85;1.00;;;22.50;99.90;;;;;;5008467;28;20068;-74
2023/09/05 08:33:50;;;;;;;2.72;0.90;;;22.50;99.90;;;;;;5010892;28;20037;-73
2023/09/05 08:36:15;;;;;;;2.13;1.10;;;22.70;99.90;;;;;;5006914;28;20072;-73
2023/09/05 08:38:41;;;;;;;4.43;0.90;;;22.80;99.90;;;;;;4990067;28;20040;-74
2023/09/05 08:41:07;;;;;;;2.90;1.20;;;22.90;99.90;;;;;;5008237;28;20104;-73
2023/09/05 08:43:34;;;;;;;2.35;0.82;;;23.00;99.90;;;;;;4999716;28;20040;-74
2023/09/05 08:46:00;;;;;;;2.65;0.77;;;23.10;99.90;;;;;;5006000;28;20026;-73
2023/09/05 08:48:29;;;;;;;6.57;0.95;;;23.10;99.90;;;;;;5010854;28;20414;-73
2023/09/05 08:50:59;;;;;;;4.53;0.90;;;23.20;99.90;;;;;;5005108;28;20092;-73
2023/09/05 08:53:33;;;;;;;3.10;1.05;;;23.20;99.90;;;;;;5006948;28;20030;-74
2023/09/05 08:56:03;;;;;;;2.60;0.80;;;23.30;99.90;;;;;;5006176;28;20049;-73
2023/09/05 08:58:30;;;;;;;4.70;1.13;;;23.50;99.90;;;;;;4998006;28;20034;-73
2023/09/05 09:00:56;;;;;;;2.65;1.00;;;23.50;99.90;;;;;;5003442;28;20505;-74
2023/09/05 09:03:21;;;;;;;2.85;1.00;;;23.60;99.90;;;;;;4993629;28;20031;-74
2023/09/05 09:05:49;;;;;;;5.07;1.10;;;23.70;99.90;;;;;;5002506;28;20037;-73
2023/09/05 09:08:15;;;;;;;1.98;0.63;;;23.80;99.90;;;;;;5010984;28;20030;-74
2023/09/05 09:10:41;;;;;;;4.03;0.98;;;23.90;99.90;;;;;;5010431;28;20470;-74
2023/09/05 09:13:15;;;;;;;3.83;0.90;;;24.00;99.90;;;;;;5000564;28;20041;-73
2023/09/05 09:15:43;;;;;;;3.28;0.90;;;24.10;99.90;;;;;;5010696;28;20029;-73
2023/09/05 09:18:17;;;;;;;2.95;0.90;;;24.20;99.90;;;;;;5007412;28;20022;-73
2023/09/05 09:20:44;;;;;;;3.30;0.80;;;24.30;99.90;;;;;;5004194;28;20029;-73
2023/09/05 09:23:09;;;;;;;4.45;0.88;;;24.40;99.90;;;;;;4999986;28;20025;-73
2023/09/05 09:25:35;;;;;;;2.65;0.80;;;24.40;99.90;;;;;;5008910;28;20037;-73
2023/09/05 09:28:00;;;;;;;2.40;0.85;;;24.40;99.90;;;;;;5010726;28;20064;-73
2023/09/05 09:30:29;;;;;;;1.83;0.80;;;24.40;99.90;;;;;;5014156;28;20363;-74
2023/09/05 09:32:55;;;;;;;3.88;0.70;;;24.60;99.90;;;;;;5014215;28;20442;-73
2023/09/05 09:35:22;;;;;;;3.33;0.80;;;24.60;99.90;;;;;;5012997;28;20553;-74
2023/09/05 09:37:49;;;;;;;2.85;0.77;;;24.70;99.90;;;;;;5015149;28;20056;-73
2023/09/05 09:40:18;;;;;;;4.95;0.80;;;24.80;99.90;;;;;;4988446;28;20030;-75
2023/09/05 09:42:48;;;;;;;1.90;0.57;;;24.80;99.90;;;;;;5014062;28;20064;-74
2023/09/05 09:45:16;;;;;;;2.13;0.90;;;24.90;99.60;;;;;;5012703;28;20026;-74
2023/09/05 09:47:47;;;;;;;3.75;0.80;;;24.90;99.30;;;;;;5014565;28;20034;-74
2023/09/05 09:50:13;;;;;;;2.25;0.80;;;25.10;99.20;;;;;;5014654;28;20482;-73
2023/09/05 09:52:43;;;;;;;1.98;0.80;;;25.10;99.10;;;;;;5012941;28;20509;-74
2023/09/05 09:55:13;;;;;;;2.03;0.80;;;25.10;98.70;;;;;;5005233;28;20038;-74
2023/09/05 09:57:56;;;;;;;1.80;0.63;;;25.30;98.60;;;;;;5009373;28;20030;-74
2023/09/05 10:00:23;;;;;;;2.10;0.65;;;25.30;98.60;;;;;;5013228;28;20545;-74
2023/09/05 10:02:49;;;;;;;2.90;0.70;;;25.40;98.70;;;;;;5011478;28;20038;-74
2023/09/05 10:05:17;;;;;;;2.40;0.50;;;25.50;98.50;;;;;;5012734;28;20053;-74
2023/09/05 10:07:46;;;;;;;2.13;0.80;;;25.60;98.10;;;;;;5011482;28;20489;-73
2023/09/05 10:10:15;;;;;;;2.55;0.80;;;25.60;96.80;;;;;;5010038;28;20561;-74
2023/09/05 10:12:44;;;;;;;2.58;0.80;;;25.70;96.60;;;;;;5013019;28;20032;-73
2023/09/05 10:15:13;;;;;;;1.50;0.60;;;25.70;96.40;;;;;;5009352;28;20405;-73
2023/09/05 10:17:40;;;;;;;2.25;0.65;;;25.80;96.70;;;;;;5010560;28;20038;-74
2023/09/05 10:20:07;;;;;;;3.30;0.80;;;26.00;96.20;;;;;;5005053;28;20088;-74
2023/09/05 10:22:39;;;;;;;3.08;0.70;;;26.10;96.40;;;;;;4993616;28;20549;-74
2023/09/05 10:25:07;;;;;;;3.95;0.73;;;26.10;96.00;;;;;;5013986;28;20474;-74
2023/09/05 10:27:33;;;;;;;4.30;0.77;;;26.20;96.20;;;;;;5011509;28;20141;-74
2023/09/05 10:29:59;;;;;;;3.92;0.85;;;26.30;96.20;;;;;;5009267;28;20105;-74
2023/09/05 10:32:25;;;;;;;1.20;0.60;;;26.30;96.00;;;;;;5011216;28;20022;-73
2023/09/05 10:34:58;;;;;;;3.58;0.80;;;26.40;95.80;;;;;;5004007;28;20037;-74
2023/09/05 10:37:33;;;;;;;1.90;0.50;;;26.50;95.20;;;;;;5013435;28;20026;-74
2023/09/05 10:40:07;;;;;;;3.20;0.57;;;26.50;94.80;;;;;;5004973;28;20032;-74
2023/09/05 10:42:33;;;;;;;3.30;0.70;;;26.50;95.00;;;;;;5003886;28;20033;-74
2023/09/05 10:45:16;;;;;;;3.15;0.73;;;26.60;95.20;;;;;;5010734;28;20026;-74
2023/09/05 10:47:41;;;;;;;2.67;0.68;;;26.70;94.00;;;;;;5013183;28;20026;-74
2023/09/05 10:50:08;;;;;;;2.60;0.60;;;26.70;93.60;;;;;;5013342;28;20033;-74
2023/09/05 10:52:34;;;;;;;1.60;0.50;;;26.80;93.60;;;;;;5012101;28;20402;-74
2023/09/05 10:55:46;;;;;;;1.65;0.60;;;26.80;93.50;;;;;;5004832;28;20502;-74
2023/09/05 10:58:38;;;;;;;2.47;0.90;;;26.90;93.60;;;;;;4980186;28;20478;-74
2023/09/05 11:01:32;;;;;;;1.70;0.70;;;27.00;93.20;;;;;;5011649;28;20034;-74
2023/09/05 11:04:07;;;;;;;2.13;0.82;;;27.00;92.90;;;;;;4994041;28;20316;-74
2023/09/05 11:06:39;;;;;;;4.03;0.70;;;27.10;92.60;;;;;;5011985;28;20031;-74
2023/09/05 11:09:06;;;;;;;2.33;0.70;;;27.10;92.70;;;;;;5011268;28;20038;-73
2023/09/05 11:11:32;;;;;;;2.08;0.70;;;27.20;92.60;;;;;;5004962;28;20034;-73
2023/09/05 11:13:58;;;;;;;1.40;0.65;;;27.30;92.70;;;;;;5005598;28;20026;-74
2023/09/05 11:16:24;;;;;;;2.65;0.70;;;27.30;92.80;;;;;;5008280;28;20117;-74
2023/09/05 11:18:56;;;;;;;5.90;0.70;;;27.40;92.40;;;;;;5009467;28;20105;-74
2023/09/05 11:21:23;;;;;;;1.38;0.50;;;27.40;91.80;;;;;;5011700;28;20037;-73
2023/09/05 11:23:55;;;;;;;3.30;0.90;;;27.50;91.50;;;;;;5012717;28;20103;-73
2023/09/05 11:26:23;;;;;;;1.10;0.50;;;27.50;91.20;;;;;;4996756;28;20034;-74
2023/09/05 11:28:51;;;;;;;1.80;0.73;;;27.50;91.20;;;;;;5012307;28;20109;-74
2023/09/05 11:31:17;;;;;;;1.70;0.85;;;27.50;90.80;;;;;;5011742;28;20045;-74
2023/09/05 11:33:44;;;;;;;3.75;0.60;;;27.60;90.80;;;;;;5004615;28;20541;-74
2023/09/05 11:36:10;;;;;;;2.28;0.70;;;27.70;91.70;;;;;;5012529;28;20431;-74
2023/09/05 11:38:50;;;;;;;5.05;0.70;;;27.80;91.10;;;;;;5011976;28;20025;-74
2023/09/05 11:41:18;;;;;;;1.70;0.70;;;27.80;91.10;;;;;;5011752;28;20025;-74
2023/09/05 11:43:49;;;;;;;2.97;0.50;;;27.90;90.90;;;;;;5012546;28;20034;-74
2023/09/05 11:46:15;;;;;;;2.17;0.60;;;28.00;90.70;;;;;;5011242;28;20104;-74
2023/09/05 11:48:45;;;;;;;2.67;0.60;;;28.00;90.30;;;;;;5011614;28;20060;-74
2023/09/05 11:51:14;;;;;;;3.00;0.80;;;28.10;89.90;;;;;;5010943;28;20888;-74
2023/09/05 11:53:43;;;;;;;3.33;0.80;;;28.10;90.30;;;;;;5012473;28;20109;-74
2023/09/05 11:56:10;;;;;;;3.35;0.60;;;28.20;89.90;;;;;;5008084;28;20101;-74
2023/09/05 11:58:35;;;;;;;1.20;0.60;;;28.20;90.00;;;;;;5011175;28;20157;-74
2023/09/05 12:01:01;;;;;;;3.40;0.65;;;28.30;90.60;;;;;;5011380;28;20052;-74
2023/09/05 12:03:34;;;;;;;2.03;0.55;;;28.40;89.70;;;;;;5005810;28;20069;-74
2023/09/05 12:05:59;;;;;;;2.03;0.60;;;28.40;88.70;;;;;;5001331;28;20036;-74
2023/09/05 12:08:25;;;;;;;3.70;0.50;;;28.50;88.00;;;;;;5007853;28;20586;-74
2023/09/05 12:10:51;;;;;;;1.42;0.70;;;28.50;88.90;;;;;;5007572;28;20022;-74
2023/09/05 12:13:37;;;;;;;2.10;0.80;;;28.60;88.80;;;;;;5010871;28;20073;-74
2023/09/05 12:16:05;;;;;;;2.08;0.70;;;28.60;88.20;;;;;;5011186;28;20057;-74
2023/09/05 12:18:31;;;;;;;2.00;0.60;;;28.70;88.00;;;;;;5010134;28;20393;-74
2023/09/05 12:21:00;;;;;;;1.92;0.63;;;28.70;87.80;;;;;;5011923;28;20036;-74
2023/09/05 12:23:26;;;;;;;1.85;0.50;;;28.80;86.20;;;;;;5009346;28;20022;-74
2023/09/05 12:25:53;;;;;;;3.63;0.68;;;28.70;84.80;;;;;;5011986;28;20050;-74
2023/09/05 12:28:20;;;;;;;1.85;0.60;;;28.60;84.60;;;;;;5010856;28;20133;-74
2023/09/05 12:30:50;;;;;;;2.53;0.57;;;28.60;84.50;;;;;;5011402;28;20502;-74
2023/09/05 12:33:16;;;;;;;2.88;0.60;;;28.60;84.10;;;;;;5011560;28;20026;-74
2023/09/05 12:35:43;;;;;;;2.10;0.70;;;28.70;83.00;;;;;;5011687;28;20025;-74
2023/09/05 12:38:10;;;;;;;4.88;1.05;;;28.80;82.60;;;;;;5010365;28;20442;-74
2023/09/05 12:40:36;;;;;;;2.45;0.60;;;28.90;82.50;;;;;;5010427;28;20032;-74
2023/09/05 12:43:02;;;;;;;3.08;0.60;;;28.90;81.40;;;;;;5007505;28;20149;-74
2023/09/05 12:45:28;;;;;;;3.33;0.63;;;29.00;81.40;;;;;;5011269;28;20037;-74
2023/09/05 12:47:54;;;;;;;1.98;0.50;;;29.00;81.40;;;;;;5010481;28;20398;-74